Time;durP1;ratioP1;P1;durP2;ratioP2;P2;SDS_P1;SDS_P2;PMS_P1;PMS_P2;Temp;Humidity;BMP_temperature;BMP_pressure;BME280_temperature;BME280_humidity;BME280_pressure;Samples;Min_cycle;Max_cycle;Signal;HPM_P1;HPM_P2
2021/03/09 00:00:06;;;;;;;11.13;4.53;;;1.90;92.80;;;;;;5119895;23;20052;-86
2021/03/09 00:02:36;;;;;;;13.43;4.37;;;2.00;92.90;;;;;;4909290;29;20056;-85
2021/03/09 00:05:07;;;;;;;9.23;4.77;;;2.20;92.90;;;;;;4909579;29;20056;-86
2021/03/09 00:07:38;;;;;;;10.17;4.23;;;2.20;93.10;;;;;;4939052;29;20056;-86
2021/03/09 00:10:10;;;;;;;9.43;4.67;;;2.10;94.40;;;;;;4923972;29;20058;-86
2021/03/09 00:12:41;;;;;;;14.53;4.80;;;2.00;94.90;;;;;;4908112;29;20038;-85
2021/03/09 00:15:11;;;;;;;8.63;4.50;;;2.20;94.80;;;;;;4909935;29;20059;-84
2021/03/09 00:42:23;;;;;;;11.93;4.00;;;2.00;96.20;;;;;;5829974;23;20986;-85
2021/03/09 01:40:46;;;;;;;11.47;5.00;;;2.10;97.90;;;;;;5613563;23;20037;-85
2021/03/09 02:00:55;;;;;;;11.43;5.87;;;2.20;99.30;;;;;;5804031;23;20020;-84
2021/03/09 02:03:30;;;;;;;11.70;5.83;;;2.00;99.90;;;;;;5365981;24;20056;-86
2021/03/09 02:09:08;;;;;;;10.50;5.50;;;2.00;99.90;;;;;;5668200;23;20058;-86
2021/03/09 02:17:52;;;;;;;12.37;5.37;;;2.00;99.90;;;;;;5791728;23;20261;-84
2021/03/09 02:24:09;;;;;;;13.90;6.27;;;2.00;99.90;;;;;;5797027;23;20677;-86
2021/03/09 02:26:58;;;;;;;13.63;6.53;;;2.00;99.90;;;;;;4852547;29;20054;-86
2021/03/09 02:29:38;;;;;;;13.37;6.00;;;1.90;99.90;;;;;;4837818;29;20045;-86
2021/03/09 02:40:40;;;;;;;13.67;6.33;;;2.10;99.90;;;;;;5344498;23;20044;-93
2021/03/09 02:43:19;;;;;;;17.67;7.53;;;2.10;99.90;;;;;;4877761;29;20048;-93
2021/03/09 02:46:12;;;;;;;15.87;7.20;;;2.10;99.90;;;;;;4894480;29;20063;-94
2021/03/09 02:48:46;;;;;;;15.50;7.30;;;2.00;99.90;;;;;;4874767;29;20056;-94
2021/03/09 02:51:27;;;;;;;15.07;6.23;;;1.90;99.90;;;;;;4905530;29;20506;-96
2021/03/09 02:53:58;;;;;;;15.93;7.30;;;1.80;99.90;;;;;;4889762;29;20063;-95
2021/03/09 02:56:26;;;;;;;12.60;6.50;;;1.60;99.90;;;;;;4874086;29;20068;-96
2021/03/09 02:58:56;;;;;;;15.77;7.03;;;1.60;99.90;;;;;;4891165;29;20383;-95
2021/03/09 03:01:26;;;;;;;12.87;6.00;;;1.60;99.90;;;;;;4875630;29;20068;-96
2021/03/09 03:03:56;;;;;;;;;;;1.50;99.90;;;;;;4891237;29;20052;-96
2021/03/09 03:06:24;;;;;;;14.50;6.17;;;1.50;99.90;;;;;;4905904;29;19930;-96
2021/03/09 03:08:57;;;;;;;14.30;6.47;;;1.50;99.90;;;;;;4898694;29;20073;-95
2021/03/09 03:11:32;;;;;;;15.37;6.40;;;1.50;99.90;;;;;;4889604;29;20060;-96
2021/03/09 03:14:08;;;;;;;10.53;5.53;;;1.50;99.90;;;;;;4888817;29;20064;-96
2021/03/09 03:16:39;;;;;;;13.00;6.68;;;1.40;99.90;;;;;;4873663;29;20060;-96
2021/03/09 03:19:10;;;;;;;17.10;7.60;;;1.30;99.90;;;;;;4888053;29;20068;-96
2021/03/09 03:21:43;;;;;;;16.03;5.90;;;1.30;99.90;;;;;;4873022;29;20067;-95
2021/03/09 03:24:16;;;;;;;12.57;6.00;;;1.30;99.90;;;;;;4873099;29;20049;-96
2021/03/09 03:26:50;;;;;;;14.87;6.33;;;1.30;99.90;;;;;;4888018;29;20386;-96
2021/03/09 03:29:23;;;;;;;13.40;7.13;;;1.30;99.90;;;;;;4887716;29;20052;-96
2021/03/09 03:31:57;;;;;;;14.70;6.37;;;1.30;99.90;;;;;;4886503;29;20056;-96
2021/03/09 03:34:27;;;;;;;13.70;6.80;;;1.30;99.90;;;;;;4887617;29;20056;-95
2021/03/09 03:36:56;;;;;;;12.70;6.13;;;1.30;99.90;;;;;;4903249;29;20064;-96
2021/03/09 03:39:29;;;;;;;15.27;7.17;;;1.30;99.90;;;;;;4872761;29;20087;-95
2021/03/09 03:41:59;;;;;;;16.83;7.90;;;1.30;99.90;;;;;;4880160;29;20479;-96
2021/03/09 03:44:31;;;;;;;15.77;7.17;;;1.30;99.90;;;;;;4890462;29;20379;-96
2021/03/09 03:47:00;;;;;;;17.23;6.57;;;1.20;99.90;;;;;;4904184;29;20067;-95
2021/03/09 03:49:31;;;;;;;15.00;6.45;;;1.20;99.90;;;;;;4886605;29;20063;-95
2021/03/09 03:52:12;;;;;;;16.60;6.23;;;1.20;99.90;;;;;;4871431;29;20076;-96
2021/03/09 03:55:00;;;;;;;13.07;5.90;;;1.20;99.90;;;;;;4885713;29;20063;-96
2021/03/09 03:57:35;;;;;;;13.38;6.28;;;1.30;99.90;;;;;;4871286;29;20394;-96
2021/03/09 04:00:06;;;;;;;14.70;7.03;;;1.20;99.90;;;;;;4902037;29;20063;-96
2021/03/09 04:02:40;;;;;;;15.67;6.93;;;1.20;99.90;;;;;;4886589;29;20065;-96
2021/03/09 04:05:16;;;;;;;14.90;6.40;;;1.20;99.90;;;;;;4873001;29;20079;-96
2021/03/09 04:07:47;;;;;;;11.03;5.83;;;1.30;99.90;;;;;;4873353;29;20475;-96
2021/03/09 04:10:15;;;;;;;15.77;6.60;;;1.20;99.90;;;;;;4874309;29;20068;-96
2021/03/09 04:12:44;;;;;;;16.87;5.67;;;1.20;99.90;;;;;;4881623;29;20063;-96
2021/03/09 04:15:16;;;;;;;16.37;6.33;;;1.20;99.90;;;;;;4886066;29;20067;-96
2021/03/09 04:17:44;;;;;;;16.40;6.10;;;1.20;99.90;;;;;;4893569;29;20049;-96
2021/03/09 04:20:25;;;;;;;12.13;5.75;;;1.20;99.90;;;;;;4889947;29;20060;-96
2021/03/09 04:22:56;;;;;;;13.40;6.27;;;1.20;99.90;;;;;;4873696;29;20463;-95
2021/03/09 04:25:26;;;;;;;10.30;5.17;;;1.10;99.90;;;;;;4888078;29;20089;-96
2021/03/09 04:27:54;;;;;;;;;;;1.10;99.90;;;;;;4872405;29;20068;-96
2021/03/09 04:30:27;;;;;;;11.17;5.53;;;1.00;99.90;;;;;;4888498;29;19923;-95
2021/03/09 04:32:58;;;;;;;19.30;5.50;;;1.00;99.90;;;;;;4886973;29;20048;-96
2021/03/09 04:35:27;;;;;;;13.50;5.50;;;1.00;99.90;;;;;;4889134;29;20559;-96
2021/03/09 04:37:57;;;;;;;14.55;6.00;;;1.00;99.90;;;;;;4889853;29;20072;-96
2021/03/09 04:40:26;;;;;;;12.00;5.43;;;1.00;99.90;;;;;;4874253;29;20467;-96
2021/03/09 04:42:54;;;;;;;11.73;5.20;;;1.00;99.90;;;;;;4876742;29;20486;-94
2021/03/09 04:45:26;;;;;;;10.88;5.15;;;0.90;99.90;;;;;;4875029;29;20083;-96
2021/03/09 04:47:55;;;;;;;14.53;5.93;;;0.90;99.90;;;;;;4876265;29;20048;-95
2021/03/09 04:50:29;;;;;;;12.77;6.03;;;0.80;99.90;;;;;;4890786;29;20067;-96
2021/03/09 04:53:00;;;;;;;13.70;6.27;;;0.80;99.90;;;;;;4896231;29;20082;-95
2021/03/09 04:55:31;;;;;;;16.63;6.30;;;0.80;99.90;;;;;;4901239;29;20071;-96
2021/03/09 04:58:04;;;;;;;12.97;6.40;;;0.80;99.90;;;;;;4881474;29;20056;-96
2021/03/09 05:00:33;;;;;;;14.20;5.60;;;0.70;99.90;;;;;;4895382;29;20052;-96
2021/03/09 05:03:02;;;;;;;15.32;5.40;;;0.70;99.90;;;;;;4895270;29;20049;-96
2021/03/09 05:05:31;;;;;;;13.60;6.30;;;0.70;99.90;;;;;;4894123;29;20049;-96
2021/03/09 05:08:00;;;;;;;14.60;5.63;;;0.60;99.90;;;;;;4888431;29;20060;-96
2021/03/09 05:10:29;;;;;;;12.50;5.80;;;0.50;99.90;;;;;;4877604;29;20060;-96
2021/03/09 05:12:58;;;;;;;17.33;6.67;;;0.50;99.90;;;;;;4892711;29;20302;-95
2021/03/09 05:15:34;;;;;;;22.27;5.80;;;0.50;99.90;;;;;;4891011;29;20060;-96
2021/03/09 05:18:07;;;;;;;16.80;5.40;;;0.40;99.90;;;;;;4877856;29;20056;-96
2021/03/09 05:20:40;;;;;;;12.43;5.50;;;0.40;99.90;;;;;;4876492;29;20063;-96
2021/03/09 05:23:16;;;;;;;16.27;6.03;;;0.30;99.90;;;;;;4880523;29;20387;-95
2021/03/09 05:25:44;;;;;;;16.57;5.90;;;0.30;99.90;;;;;;4891383;29;20062;-95
2021/03/09 05:28:15;;;;;;;24.02;6.80;;;0.30;99.90;;;;;;4868047;29;20057;-95
2021/03/09 05:30:42;;;;;;;17.53;6.40;;;0.20;99.90;;;;;;4857223;29;20048;-96
2021/03/09 05:33:25;;;;;;;25.00;6.63;;;0.20;99.90;;;;;;4856573;29;20063;-96
2021/03/09 05:36:01;;;;;;;17.67;6.93;;;0.20;99.90;;;;;;4872276;29;20056;-95
2021/03/09 05:38:42;;;;;;;21.40;6.07;;;0.20;99.90;;;;;;4856969;29;20053;-96
2021/03/09 05:41:15;;;;;;;25.20;7.10;;;0.20;99.90;;;;;;4868200;29;20057;-95
2021/03/09 05:43:54;;;;;;;27.47;6.43;;;0.20;99.90;;;;;;4863768;29;20053;-96
2021/03/09 05:46:51;;;;;;;21.10;5.50;;;0.20;99.90;;;;;;4872980;29;20087;-95
2021/03/09 05:49:22;;;;;;;19.20;6.17;;;0.10;99.90;;;;;;4875312;29;20414;-96
2021/03/09 05:51:52;;;;;;;22.17;6.07;;;0.10;99.90;;;;;;4864009;29;20299;-96
2021/03/09 05:54:28;;;;;;;22.83;7.07;;;0.10;99.90;;;;;;4873576;29;20108;-96
2021/03/09 05:56:58;;;;;;;16.73;5.93;;;0.10;99.90;;;;;;4857216;29;20068;-94
2021/03/09 05:59:31;;;;;;;16.60;6.10;;;0.20;99.90;;;;;;4874001;29;20068;-96
2021/03/09 06:02:04;;;;;;;22.87;8.20;;;0.10;99.90;;;;;;4861048;29;20057;-96
2021/03/09 06:04:41;;;;;;;23.10;8.67;;;0.20;99.90;;;;;;4863568;29;20050;-95
2021/03/09 06:07:18;;;;;;;17.30;6.77;;;0.20;99.90;;;;;;4860773;29;20063;-96
2021/03/09 06:09:48;;;;;;;39.00;8.50;;;0.20;99.90;;;;;;4863039;29;20065;-94
2021/03/09 06:12:25;;;;;;;22.33;6.37;;;0.30;99.90;;;;;;4861470;29;20068;-95
2021/03/09 06:15:06;;;;;;;24.83;6.50;;;0.30;99.90;;;;;;4863607;29;20053;-95
2021/03/09 06:18:25;;;;;;;52.13;9.83;;;0.30;99.90;;;;;;4883827;29;20050;-96
2021/03/09 06:24:25;;;;;;;33.37;7.70;;;0.30;99.90;;;;;;4882033;29;20064;-96
2021/03/09 06:26:56;;;;;;;24.53;5.93;;;0.40;99.90;;;;;;4864311;29;20063;-94
2021/03/09 06:29:31;;;;;;;23.57;6.03;;;0.50;99.90;;;;;;4864040;29;20060;-94
2021/03/09 06:32:04;;;;;;;36.87;8.03;;;0.50;99.90;;;;;;4874618;29;20064;-95
2021/03/09 06:34:39;;;;;;;17.40;5.83;;;0.50;99.90;;;;;;4866066;29;20072;-96
2021/03/09 06:37:13;;;;;;;15.87;5.40;;;0.50;99.90;;;;;;4878340;29;20057;-96
2021/03/09 06:39:54;;;;;;;17.23;6.20;;;0.60;99.90;;;;;;4866285;29;20065;-96
2021/03/09 06:42:36;;;;;;;16.55;6.03;;;0.60;99.90;;;;;;4866827;29;20053;-95
2021/03/09 06:45:13;;;;;;;15.63;5.23;;;0.70;99.90;;;;;;4883263;29;20611;-96
2021/03/09 06:47:45;;;;;;;61.73;9.47;;;0.70;99.90;;;;;;4875011;29;20071;-95
2021/03/09 06:50:20;;;;;;;26.80;8.67;;;0.80;99.90;;;;;;4871016;29;20075;-95
2021/03/09 06:53:04;;;;;;;15.60;6.90;;;0.90;99.90;;;;;;4873772;29;20063;-96
2021/03/09 06:55:34;;;;;;;19.43;6.37;;;1.00;99.90;;;;;;4893615;29;20056;-95
2021/03/09 06:58:11;;;;;;;32.80;7.50;;;1.10;99.90;;;;;;4888427;29;20052;-96
2021/03/09 07:00:41;;;;;;;18.60;6.03;;;1.10;99.90;;;;;;4898132;29;20057;-96
2021/03/09 07:03:32;;;;;;;33.13;8.63;;;1.30;99.90;;;;;;4901993;29;20053;-95
2021/03/09 07:06:16;;;;;;;23.30;5.77;;;1.40;99.90;;;;;;4918388;29;20049;-96
2021/03/09 07:08:45;;;;;;;18.63;5.70;;;1.50;99.90;;;;;;4903537;29;20057;-95
2021/03/09 07:11:27;;;;;;;17.40;6.47;;;1.60;99.90;;;;;;4919446;29;20036;-96
2021/03/09 07:14:26;;;;;;;20.10;5.50;;;1.70;99.90;;;;;;4915085;29;20058;-96
2021/03/09 07:17:01;;;;;;;15.63;5.07;;;1.80;99.90;;;;;;4897963;29;20071;-96
2021/03/09 07:19:51;;;;;;;11.43;5.03;;;1.90;99.90;;;;;;4899856;29;20109;-96
2021/03/09 07:22:44;;;;;;;29.03;5.90;;;2.00;99.90;;;;;;4904866;29;20063;-96
2021/03/09 07:25:35;;;;;;;;;;;;;;;;;;;;;
2021/03/09 07:28:25;;;;;;;13.20;5.60;;;2.20;99.90;;;;;;4898244;29;20052;-96
2021/03/09 07:31:15;;;;;;;18.70;7.70;;;2.40;99.90;;;;;;4898992;29;20067;-96
2021/03/09 07:33:52;;;;;;;12.60;5.80;;;2.60;99.90;;;;;;4895384;29;20063;-96
2021/03/09 07:36:24;;;;;;;19.53;5.33;;;2.80;99.80;;;;;;4886077;29;20048;-95
2021/03/09 07:39:02;;;;;;;14.17;5.10;;;3.10;96.50;;;;;;4881349;29;20052;-95
2021/03/09 07:41:30;;;;;;;15.77;4.77;;;3.30;96.80;;;;;;4875487;29;20056;-96
2021/03/09 07:44:02;;;;;;;34.37;7.83;;;3.50;95.10;;;;;;4889817;29;20063;-95
2021/03/09 07:46:31;;;;;;;35.53;7.93;;;3.60;95.20;;;;;;4875319;29;20072;-96
2021/03/09 07:48:58;;;;;;;14.43;4.90;;;3.80;92.20;;;;;;4868914;29;20483;-95
2021/03/09 07:51:26;;;;;;;13.43;3.97;;;4.00;91.10;;;;;;4889674;29;20753;-96
2021/03/09 07:54:09;;;;;;;9.37;4.30;;;4.10;85.20;;;;;;4903841;29;20361;-95
2021/03/09 07:57:23;;;;;;;9.20;3.80;;;4.10;78.80;;;;;;4903091;29;20052;-96
2021/03/09 07:59:56;;;;;;;6.33;3.20;;;4.20;76.90;;;;;;4879256;29;20171;-96
2021/03/09 08:02:54;;;;;;;16.87;4.50;;;4.30;74.10;;;;;;4889487;29;20057;-96
2021/03/09 08:05:26;;;;;;;9.80;3.40;;;4.30;73.80;;;;;;4903529;29;20068;-95
2021/03/09 08:07:59;;;;;;;14.43;4.13;;;4.50;73.20;;;;;;4883722;29;20057;-92
2021/03/09 08:10:44;;;;;;;10.50;3.70;;;4.40;70.60;;;;;;4887563;29;20055;-93
2021/03/09 08:13:26;;;;;;;10.73;4.32;;;4.40;68.30;;;;;;4882615;29;20048;-90
2021/03/09 08:16:30;;;;;;;9.98;3.50;;;4.30;68.10;;;;;;4906014;29;20064;-93
2021/03/09 08:19:09;;;;;;;12.97;4.43;;;4.30;66.60;;;;;;4918003;29;20063;-89
2021/03/09 08:21:47;;;;;;;;;;;4.10;67.60;;;;;;4907073;29;20062;-91
2021/03/09 08:24:16;;;;;;;;;;;3.90;69.20;;;;;;4923586;29;19922;-92
2021/03/09 08:26:51;;;;;;;8.68;3.33;;;4.00;70.70;;;;;;4922293;29;19959;-94
2021/03/09 08:29:40;;;;;;;7.77;3.33;;;4.30;70.10;;;;;;4898533;29;20386;-93
2021/03/09 08:32:35;;;;;;;18.17;4.20;;;4.50;68.50;;;;;;4888414;29;20091;-95
2021/03/09 08:35:39;;;;;;;10.10;3.90;;;4.80;68.40;;;;;;4884156;29;20383;-93
2021/03/09 08:38:22;;;;;;;12.90;3.83;;;5.00;65.70;;;;;;4909849;29;20781;-94
2021/03/09 08:41:17;;;;;;;9.80;3.50;;;5.10;65.30;;;;;;4885646;29;20064;-96
2021/03/09 08:44:20;;;;;;;12.10;4.28;;;5.20;64.70;;;;;;4888760;29;20057;-95
2021/03/09 08:46:56;;;;;;;9.85;4.15;;;5.30;64.40;;;;;;4889906;29;20052;-96
2021/03/09 08:49:59;;;;;;;10.23;3.57;;;5.30;63.30;;;;;;4896089;29;20049;-94
2021/03/09 08:52:42;;;;;;;8.25;3.47;;;5.20;62.20;;;;;;4892453;29;20056;-91
2021/03/09 08:55:11;;;;;;;7.75;3.40;;;5.00;61.40;;;;;;4914995;29;20040;-87
2021/03/09 08:57:40;;;;;;;8.87;3.73;;;4.70;63.10;;;;;;4905071;29;20067;-85
2021/03/09 09:00:19;;;;;;;8.05;3.65;;;4.50;64.20;;;;;;4905808;29;20036;-90
2021/03/09 09:02:51;;;;;;;17.73;4.60;;;4.40;66.20;;;;;;4910231;29;20060;-93
2021/03/09 09:05:22;;;;;;;8.03;4.20;;;4.60;65.80;;;;;;4891592;29;20048;-96
2021/03/09 09:07:55;;;;;;;16.40;4.70;;;4.90;66.00;;;;;;4867379;29;20057;-93
2021/03/09 09:16:30;;;;;;;9.05;4.60;;;5.40;63.00;;;;;;4923870;29;20039;-96
2021/03/09 09:19:31;;;;;;;8.27;3.90;;;5.60;62.20;;;;;;4874394;29;20064;-96
2021/03/09 09:22:31;;;;;;;8.13;4.10;;;5.80;60.60;;;;;;4921021;29;20062;-96
2021/03/09 09:25:15;;;;;;;8.02;4.30;;;5.80;59.10;;;;;;4872807;29;20052;-94
2021/03/09 09:28:09;;;;;;;15.70;5.15;;;5.50;59.60;;;;;;4872338;29;20056;-95
2021/03/09 09:30:41;;;;;;;13.40;4.88;;;5.50;60.60;;;;;;4894572;29;20053;-96
2021/03/09 09:33:14;;;;;;;11.70;4.20;;;5.60;60.80;;;;;;4891823;29;20394;-96
2021/03/09 09:35:43;;;;;;;13.70;4.72;;;5.70;59.60;;;;;;4905209;29;20052;-96
2021/03/09 09:38:14;;;;;;;13.32;4.55;;;5.70;59.50;;;;;;4920937;29;20060;-96
2021/03/09 09:40:51;;;;;;;9.93;4.50;;;5.80;59.90;;;;;;4882135;29;20068;-96
2021/03/09 09:43:21;;;;;;;7.82;3.85;;;5.90;59.70;;;;;;4893955;29;20067;-96
2021/03/09 09:46:00;;;;;;;8.75;4.35;;;6.10;59.00;;;;;;4903375;29;20048;-96
2021/03/09 09:51:40;;;;;;;10.27;4.65;;;5.90;59.40;;;;;;4987895;23;20039;-96
2021/03/09 09:54:11;;;;;;;8.57;4.53;;;6.40;58.10;;;;;;4925247;29;20056;-96
2021/03/09 09:56:40;;;;;;;11.93;4.43;;;6.80;57.40;;;;;;4914546;29;20058;-96
2021/03/09 09:59:25;;;;;;;14.65;4.97;;;7.20;56.50;;;;;;4921779;29;20056;-96
2021/03/09 10:01:54;;;;;;;9.07;4.22;;;7.70;55.70;;;;;;4935893;29;20063;-96
2021/03/09 10:04:37;;;;;;;19.58;5.55;;;8.00;54.20;;;;;;4910385;29;20394;-96
2021/03/09 10:07:19;;;;;;;14.43;4.93;;;8.30;53.70;;;;;;4899754;29;20070;-96
2021/03/09 10:10:09;;;;;;;9.32;4.57;;;8.90;52.60;;;;;;4930765;29;20060;-96
2021/03/09 10:12:39;;;;;;;13.75;4.97;;;9.40;50.40;;;;;;4907588;29;20066;-96
2021/03/09 10:15:09;;;;;;;13.40;5.25;;;9.80;49.50;;;;;;4907191;29;20079;-96
2021/03/09 10:17:41;;;;;;;15.18;5.07;;;10.10;48.00;;;;;;4907564;29;20055;-96
2021/03/09 10:20:29;;;;;;;12.02;5.10;;;10.00;47.50;;;;;;4918047;29;20056;-95
2021/03/09 10:23:09;;;;;;;14.25;5.47;;;10.30;47.70;;;;;;4917820;29;20063;-96
2021/03/09 10:25:43;;;;;;;9.63;5.03;;;10.90;46.60;;;;;;4900538;29;20051;-95
2021/03/09 10:28:24;;;;;;;11.90;6.07;;;11.30;45.00;;;;;;4903808;29;20070;-95
2021/03/09 10:30:56;;;;;;;13.60;6.10;;;11.10;45.10;;;;;;4906676;29;20048;-95
2021/03/09 10:33:38;;;;;;;11.38;5.05;;;10.40;45.10;;;;;;4897303;29;20067;-96
2021/03/09 10:36:13;;;;;;;15.57;7.03;;;9.70;46.50;;;;;;4894651;29;20079;-96
2021/03/09 10:38:42;;;;;;;10.02;5.53;;;10.10;47.20;;;;;;4926789;29;20067;-95
2021/03/09 10:41:27;;;;;;;8.85;5.20;;;10.80;44.20;;;;;;4896075;29;20052;-95
2021/03/09 10:43:54;;;;;;;11.38;5.43;;;10.90;42.90;;;;;;4931640;29;20051;-95
2021/03/09 10:46:22;;;;;;;11.35;5.55;;;11.40;42.80;;;;;;4913154;29;20055;-93
2021/03/09 10:48:50;;;;;;;12.10;5.50;;;12.10;41.40;;;;;;4914828;29;20056;-93
2021/03/09 10:51:19;;;;;;;10.38;5.15;;;12.60;40.30;;;;;;4914781;29;20101;-94
2021/03/09 10:53:50;;;;;;;13.10;6.00;;;11.80;39.10;;;;;;4926799;29;20063;-94
2021/03/09 10:56:18;;;;;;;13.48;5.85;;;10.80;41.80;;;;;;4929020;29;20048;-95
2021/03/09 10:58:49;;;;;;;12.13;6.20;;;11.30;41.10;;;;;;4902631;29;20061;-93
2021/03/09 11:01:16;;;;;;;12.40;6.97;;;11.80;40.50;;;;;;4913200;29;20067;-93
2021/03/09 11:03:44;;;;;;;12.07;6.32;;;12.70;38.30;;;;;;4917316;29;20062;-93
2021/03/09 11:06:12;;;;;;;16.15;6.32;;;13.70;36.80;;;;;;4914762;29;20044;-93
2021/03/09 11:08:43;;;;;;;13.10;6.35;;;14.30;35.90;;;;;;4895899;29;20052;-94
2021/03/09 11:11:13;;;;;;;13.07;6.55;;;14.50;35.60;;;;;;4912406;29;20051;-95
2021/03/09 11:13:41;;;;;;;21.42;7.25;;;14.50;35.50;;;;;;4911192;29;20058;-93
2021/03/09 11:16:10;;;;;;;15.03;7.23;;;14.60;35.30;;;;;;4900893;29;20035;-93
2021/03/09 11:18:37;;;;;;;13.30;7.22;;;14.50;36.00;;;;;;4920917;29;20047;-96
2021/03/09 11:21:08;;;;;;;13.18;6.93;;;14.50;36.80;;;;;;4897414;29;20067;-93
2021/03/09 11:23:36;;;;;;;16.08;7.03;;;15.10;36.10;;;;;;4918815;29;20352;-88
2021/03/09 11:26:04;;;;;;;14.10;7.95;;;15.80;35.50;;;;;;4906008;29;20678;-90
2021/03/09 11:28:36;;;;;;;14.27;8.80;;;16.80;33.90;;;;;;4898655;29;20055;-91
2021/03/09 11:31:04;;;;;;;13.50;8.10;;;16.70;32.70;;;;;;4927671;29;20181;-89
2021/03/09 11:33:31;;;;;;;16.20;7.95;;;17.00;32.80;;;;;;4890390;29;20083;-91
2021/03/09 11:35:59;;;;;;;13.20;7.10;;;17.20;32.60;;;;;;4905523;29;20074;-90
2021/03/09 11:38:27;;;;;;;12.10;7.60;;;17.50;31.30;;;;;;4890987;29;20052;-91
2021/03/09 11:40:55;;;;;;;13.23;8.05;;;17.50;31.20;;;;;;4909752;29;20434;-91
2021/03/09 11:43:22;;;;;;;16.08;7.88;;;18.30;30.10;;;;;;4928466;29;20055;-90
2021/03/09 11:45:51;;;;;;;16.77;8.48;;;18.70;29.60;;;;;;4895728;29;20514;-90
2021/03/09 11:48:20;;;;;;;19.85;9.43;;;19.10;29.30;;;;;;4898515;29;20056;-91
2021/03/09 11:50:57;;;;;;;15.45;8.57;;;19.40;29.30;;;;;;4904447;29;20056;-89
2021/03/09 11:53:31;;;;;;;20.77;10.05;;;18.50;30.00;;;;;;4882183;29;20059;-90
2021/03/09 11:56:01;;;;;;;17.42;9.20;;;17.90;30.20;;;;;;4869235;29;20052;-91
2021/03/09 11:58:29;;;;;;;15.07;8.57;;;17.30;31.20;;;;;;4884902;29;20087;-92
2021/03/09 12:00:59;;;;;;;17.42;10.02;;;16.00;31.90;;;;;;4889081;29;20061;-92
2021/03/09 12:03:27;;;;;;;18.95;9.07;;;15.20;33.10;;;;;;4875188;29;20056;-91
2021/03/09 12:05:59;;;;;;;14.45;8.30;;;14.60;34.30;;;;;;4865655;29;20057;-94
2021/03/09 12:08:26;;;;;;;13.32;8.77;;;13.80;34.90;;;;;;4870470;29;20053;-95
2021/03/09 12:10:54;;;;;;;14.98;8.82;;;12.90;36.10;;;;;;4872079;29;20064;-96
2021/03/09 12:13:26;;;;;;;16.05;8.95;;;12.30;38.10;;;;;;4883487;29;20056;-92
2021/03/09 12:15:54;;;;;;;17.25;8.07;;;13.40;36.70;;;;;;4883041;29;20049;-90
2021/03/09 12:18:37;;;;;;;14.27;8.00;;;14.80;34.00;;;;;;4873109;29;20060;-92
2021/03/09 12:21:09;;;;;;;15.90;8.13;;;14.50;34.00;;;;;;4864478;29;20052;-92
2021/03/09 12:23:38;;;;;;;18.02;8.10;;;14.90;34.50;;;;;;4895454;29;20068;-95
2021/03/09 12:26:10;;;;;;;13.48;7.95;;;14.70;33.80;;;;;;4876599;29;20033;-94
2021/03/09 12:28:40;;;;;;;14.65;8.25;;;15.50;33.00;;;;;;4864578;29;20057;-91
2021/03/09 12:31:09;;;;;;;11.75;7.72;;;16.10;32.60;;;;;;4854896;29;20056;-88
2021/03/09 12:33:40;;;;;;;14.98;8.38;;;16.60;32.10;;;;;;4847497;29;20065;-88
2021/03/09 12:36:10;;;;;;;18.20;8.80;;;17.00;31.20;;;;;;4855445;29;20053;-86
2021/03/09 12:38:41;;;;;;;15.50;8.98;;;17.10;31.00;;;;;;4872981;29;20067;-89
2021/03/09 12:41:09;;;;;;;16.05;9.10;;;15.60;32.10;;;;;;4853716;29;20053;-89
2021/03/09 12:43:38;;;;;;;;;;;14.30;34.00;;;;;;4875022;29;20067;-88
2021/03/09 12:46:09;;;;;;;27.33;9.25;;;14.70;35.00;;;;;;4887467;29;19923;-88
2021/03/09 12:48:37;;;;;;;14.20;7.55;;;15.50;40.70;;;;;;4872253;29;20490;-92
2021/03/09 12:51:05;;;;;;;14.10;8.05;;;14.40;37.80;;;;;;4863623;29;20064;-92
2021/03/09 12:53:33;;;;;;;15.13;7.53;;;13.70;39.70;;;;;;4890066;29;20067;-89
2021/03/09 12:56:00;;;;;;;20.83;8.68;;;14.30;41.10;;;;;;4884366;29;20471;-91
2021/03/09 12:58:28;;;;;;;18.85;7.97;;;13.30;38.90;;;;;;4900138;29;20071;-89
2021/03/09 13:00:58;;;;;;;15.75;7.25;;;12.90;42.00;;;;;;4899855;29;20067;-90
2021/03/09 13:03:25;;;;;;;26.83;8.33;;;14.10;37.20;;;;;;4868090;29;20056;-85
2021/03/09 13:05:53;;;;;;;25.25;9.57;;;15.80;40.60;;;;;;4891506;29;20311;-85
2021/03/09 13:08:25;;;;;;;16.98;7.70;;;17.20;42.00;;;;;;4897099;29;20067;-89
2021/03/09 13:10:53;;;;;;;17.70;7.72;;;17.90;32.30;;;;;;4882558;29;20619;-86
2021/03/09 13:13:20;;;;;;;18.13;8.77;;;17.80;31.00;;;;;;4886851;29;20394;-86
2021/03/09 13:15:50;;;;;;;36.88;8.73;;;18.10;32.40;;;;;;4886404;29;20386;-89
2021/03/09 13:18:17;;;;;;;16.20;7.72;;;18.20;34.10;;;;;;4872453;29;20056;-90
2021/03/09 13:20:45;;;;;;;19.65;8.63;;;17.90;30.70;;;;;;4904219;29;20069;-88
2021/03/09 13:23:13;;;;;;;30.77;8.45;;;17.40;32.60;;;;;;4884661;29;20073;-88
2021/03/09 13:25:41;;;;;;;17.58;7.40;;;17.20;32.00;;;;;;4884817;29;20057;-88
2021/03/09 13:28:11;;;;;;;28.02;8.45;;;16.60;32.40;;;;;;4884785;29;20068;-87
2021/03/09 13:30:40;;;;;;;14.10;7.40;;;16.00;34.00;;;;;;4891196;29;20061;-86
2021/03/09 13:33:11;;;;;;;14.48;8.20;;;15.70;33.80;;;;;;4869338;29;20483;-88
2021/03/09 13:35:40;;;;;;;20.95;8.48;;;15.40;34.30;;;;;;4885972;29;20053;-88
2021/03/09 13:38:08;;;;;;;12.23;7.45;;;14.60;33.40;;;;;;4868986;29;20063;-85
2021/03/09 13:40:39;;;;;;;17.50;7.90;;;14.30;33.70;;;;;;4866800;29;20061;-87
2021/03/09 13:43:07;;;;;;;14.02;6.90;;;13.80;34.20;;;;;;4882746;29;20060;-87
2021/03/09 13:45:34;;;;;;;11.50;7.00;;;13.60;34.20;;;;;;4902013;29;20053;-91
2021/03/09 13:48:02;;;;;;;15.05;7.75;;;12.70;34.70;;;;;;4885926;29;20426;-90
2021/03/09 13:50:31;;;;;;;13.57;8.20;;;11.60;37.30;;;;;;4890048;29;20052;-89
2021/03/09 13:52:58;;;;;;;17.48;8.02;;;11.80;37.60;;;;;;4865852;29;20053;-89
2021/03/09 13:55:26;;;;;;;15.07;7.18;;;12.20;37.10;;;;;;4881529;29;20068;-86
2021/03/09 13:57:55;;;;;;;13.07;6.87;;;13.10;36.10;;;;;;4859088;29;20044;-88
2021/03/09 14:00:23;;;;;;;16.50;7.30;;;13.40;35.50;;;;;;4883698;29;20067;-87
2021/03/09 14:02:59;;;;;;;12.40;7.57;;;14.00;34.90;;;;;;4883990;29;20059;-84
2021/03/09 14:05:28;;;;;;;14.10;7.25;;;14.30;34.30;;;;;;4884945;29;20049;-89
2021/03/09 14:07:58;;;;;;;13.82;8.23;;;14.40;34.10;;;;;;4878160;29;20083;-87
2021/03/09 14:10:27;;;;;;;14.95;8.05;;;14.10;34.30;;;;;;4892458;29;20056;-87
2021/03/09 14:12:59;;;;;;;13.10;7.30;;;13.80;34.50;;;;;;4882342;29;20068;-87
2021/03/09 14:15:31;;;;;;;13.93;7.45;;;13.00;35.60;;;;;;4873644;29;20059;-90
2021/03/09 14:17:59;;;;;;;13.00;6.82;;;12.20;36.10;;;;;;4894227;29;20048;-91
2021/03/09 14:20:33;;;;;;;13.50;7.25;;;11.50;38.70;;;;;;4892293;29;20075;-91
2021/03/09 14:23:00;;;;;;;13.25;7.47;;;11.90;38.00;;;;;;4890537;29;20059;-89
2021/03/09 14:25:30;;;;;;;15.60;7.60;;;12.40;37.40;;;;;;4901762;29;20053;-87
2021/03/09 14:28:02;;;;;;;12.93;7.47;;;12.50;37.60;;;;;;4867338;29;20487;-87
2021/03/09 14:30:31;;;;;;;11.70;7.25;;;12.50;37.20;;;;;;4879195;29;20078;-86
2021/03/09 14:33:03;;;;;;;15.82;7.68;;;12.50;37.70;;;;;;4888043;29;20071;-86
2021/03/09 14:35:35;;;;;;;12.82;6.97;;;12.70;37.80;;;;;;4880064;29;20052;-85
2021/03/09 14:38:03;;;;;;;12.13;7.35;;;13.20;36.80;;;;;;4877840;29;20052;-85
2021/03/09 14:40:46;;;;;;;13.20;7.22;;;13.50;36.30;;;;;;4896101;29;20068;-84
2021/03/09 14:43:18;;;;;;;26.38;12.88;;;14.00;35.40;;;;;;4880121;29;20049;-85
2021/03/09 14:45:55;;;;;;;11.68;7.18;;;14.90;34.70;;;;;;4892563;29;20056;-85
2021/03/09 14:49:12;;;;;;;12.73;6.80;;;15.80;33.10;;;;;;4899625;29;20056;-84
2021/03/09 14:51:52;;;;;;;13.05;7.88;;;15.70;32.60;;;;;;4884291;29;20353;-83
2021/03/09 14:54:22;;;;;;;14.23;7.70;;;15.50;33.00;;;;;;4876674;29;20060;-87
2021/03/09 14:57:15;;;;;;;12.07;7.00;;;15.20;33.70;;;;;;4876675;29;20436;-86
2021/03/09 14:59:43;;;;;;;12.35;6.93;;;15.50;33.00;;;;;;4863695;29;20054;-86
2021/03/09 15:02:11;;;;;;;17.67;7.75;;;15.30;33.20;;;;;;4850611;29;20048;-88
2021/03/09 15:04:42;;;;;;;12.68;7.30;;;14.80;33.70;;;;;;4857611;29;20058;-87
2021/03/09 15:07:26;;;;;;;15.00;7.55;;;14.70;33.80;;;;;;4875578;29;20044;-85
2021/03/09 15:10:01;;;;;;;13.52;8.20;;;14.90;33.60;;;;;;4857111;29;20056;-85
2021/03/09 15:12:37;;;;;;;;;;;15.40;33.30;;;;;;4871964;29;20067;-86
2021/03/09 15:15:15;;;;;;;14.35;7.40;;;15.70;32.80;;;;;;4854125;29;19928;-85
2021/03/09 15:18:04;;;;;;;13.88;8.02;;;15.60;32.80;;;;;;4871801;29;20053;-84
2021/03/09 15:20:32;;;;;;;13.15;7.85;;;15.30;32.90;;;;;;4869932;29;20045;-85
2021/03/09 15:23:00;;;;;;;13.27;7.33;;;14.90;33.60;;;;;;4835513;29;20068;-86
2021/03/09 15:25:28;;;;;;;12.90;7.05;;;14.70;33.40;;;;;;4877888;29;20072;-89
2021/03/09 15:27:56;;;;;;;16.63;7.15;;;13.40;34.70;;;;;;4869192;29;20071;-85
2021/03/09 15:30:28;;;;;;;14.15;7.38;;;12.40;36.60;;;;;;4880835;29;20402;-88
2021/03/09 15:32:56;;;;;;;19.25;9.40;;;11.70;38.00;;;;;;4883065;29;20059;-88